sensor_id;sensor_type;location;lat;lon;timestamp;P1;durP1;ratioP1;P2;durP2;ratioP2
4724;SDS011;2376;53.544;10.226;2023-06-10T00:02:25;7.93;;;4.37;;
4724;SDS011;2376;53.544;10.226;2023-06-10T00:04:52;8.43;;;4.37;;
4724;SDS011;2376;53.544;10.226;2023-06-10T00:07:19;7.03;;;4.30;;
4724;SDS011;2376;53.544;10.226;2023-06-10T00:09:45;9.83;;;4.50;;
4724;SDS011;2376;53.544;10.226;2023-06-10T00:12:12;5.57;;;4.50;;
4724;SDS011;2376;53.544;10.226;2023-06-10T00:14:40;6.23;;;4.27;;
4724;SDS011;2376;53.544;10.226;2023-06-10T00:17:08;6.63;;;4.53;;
4724;SDS011;2376;53.544;10.226;2023-06-10T00:19:35;6.47;;;4.57;;
4724;SDS011;2376;53.544;10.226;2023-06-10T00:22:02;8.10;;;4.57;;
4724;SDS011;2376;53.544;10.226;2023-06-10T00:24:29;6.67;;;4.80;;
4724;SDS011;2376;53.544;10.226;2023-06-10T00:26:56;5.57;;;4.20;;
4724;SDS011;2376;53.544;10.226;2023-06-10T00:29:23;5.87;;;3.87;;
4724;SDS011;2376;53.544;10.226;2023-06-10T00:31:49;7.43;;;3.87;;
4724;SDS011;2376;53.544;10.226;2023-06-10T00:34:20;10.30;;;4.80;;
4724;SDS011;2376;53.544;10.226;2023-06-10T00:36:46;9.87;;;5.73;;
4724;SDS011;2376;53.544;10.226;2023-06-10T00:39:13;4.23;;;3.90;;
4724;SDS011;2376;53.544;10.226;2023-06-10T00:41:40;7.10;;;3.90;;
4724;SDS011;2376;53.544;10.226;2023-06-10T00:44:07;8.03;;;3.97;;
4724;SDS011;2376;53.544;10.226;2023-06-10T00:46:33;6.87;;;5.40;;
4724;SDS011;2376;53.544;10.226;2023-06-10T00:49:00;4.30;;;3.90;;
4724;SDS011;2376;53.544;10.226;2023-06-10T00:51:29;7.97;;;4.73;;
4724;SDS011;2376;53.544;10.226;2023-06-10T00:53:55;9.90;;;4.43;;
4724;SDS011;2376;53.544;10.226;2023-06-10T00:56:23;5.67;;;3.50;;
4724;SDS011;2376;53.544;10.226;2023-06-10T00:58:50;8.90;;;4.90;;
4724;SDS011;2376;53.544;10.226;2023-06-10T01:01:16;3.87;;;3.03;;
4724;SDS011;2376;53.544;10.226;2023-06-10T01:03:45;5.20;;;3.57;;
4724;SDS011;2376;53.544;10.226;2023-06-10T01:06:14;5.40;;;4.03;;
4724;SDS011;2376;53.544;10.226;2023-06-10T01:08:49;9.23;;;3.70;;
4724;SDS011;2376;53.544;10.226;2023-06-10T01:11:23;8.13;;;3.90;;
4724;SDS011;2376;53.544;10.226;2023-06-10T01:13:53;4.47;;;2.93;;
4724;SDS011;2376;53.544;10.226;2023-06-10T01:16:24;5.43;;;3.60;;
4724;SDS011;2376;53.544;10.226;2023-06-10T01:18:51;8.60;;;3.87;;
4724;SDS011;2376;53.544;10.226;2023-06-10T01:21:21;3.70;;;3.40;;
4724;SDS011;2376;53.544;10.226;2023-06-10T01:23:49;6.23;;;4.30;;
4724;SDS011;2376;53.544;10.226;2023-06-10T01:26:17;6.63;;;3.70;;
4724;SDS011;2376;53.544;10.226;2023-06-10T01:28:47;10.37;;;3.63;;
4724;SDS011;2376;53.544;10.226;2023-06-10T01:31:20;4.30;;;3.40;;
4724;SDS011;2376;53.544;10.226;2023-06-10T01:33:59;4.37;;;3.40;;
4724;SDS011;2376;53.544;10.226;2023-06-10T01:36:28;13.13;;;5.43;;
4724;SDS011;2376;53.544;10.226;2023-06-10T01:38:56;4.23;;;3.50;;
4724;SDS011;2376;53.544;10.226;2023-06-10T01:41:25;8.43;;;4.17;;
4724;SDS011;2376;53.544;10.226;2023-06-10T01:43:54;5.37;;;3.97;;
4724;SDS011;2376;53.544;10.226;2023-06-10T01:46:21;6.50;;;3.00;;
4724;SDS011;2376;53.544;10.226;2023-06-10T01:48:47;8.97;;;3.30;;
4724;SDS011;2376;53.544;10.226;2023-06-10T01:51:14;5.47;;;3.10;;
4724;SDS011;2376;53.544;10.226;2023-06-10T01:53:42;4.97;;;4.07;;
4724;SDS011;2376;53.544;10.226;2023-06-10T01:56:09;7.20;;;3.20;;
4724;SDS011;2376;53.544;10.226;2023-06-10T01:58:41;7.40;;;3.53;;
4724;SDS011;2376;53.544;10.226;2023-06-10T02:01:08;4.03;;;2.87;;
4724;SDS011;2376;53.544;10.226;2023-06-10T02:03:35;7.90;;;3.10;;
4724;SDS011;2376;53.544;10.226;2023-06-10T02:06:02;5.33;;;3.33;;
4724;SDS011;2376;53.544;10.226;2023-06-10T02:08:28;6.90;;;3.63;;
4724;SDS011;2376;53.544;10.226;2023-06-10T02:10:56;7.60;;;4.17;;
4724;SDS011;2376;53.544;10.226;2023-06-10T02:13:23;5.77;;;3.40;;
4724;SDS011;2376;53.544;10.226;2023-06-10T02:15:50;6.60;;;2.73;;
4724;SDS011;2376;53.544;10.226;2023-06-10T02:18:18;6.77;;;3.40;;
4724;SDS011;2376;53.544;10.226;2023-06-10T02:20:45;7.27;;;3.33;;
4724;SDS011;2376;53.544;10.226;2023-06-10T02:23:12;4.70;;;2.57;;
4724;SDS011;2376;53.544;10.226;2023-06-10T02:25:39;4.43;;;3.00;;
4724;SDS011;2376;53.544;10.226;2023-06-10T02:28:07;8.57;;;3.50;;
4724;SDS011;2376;53.544;10.226;2023-06-10T02:30:33;10.03;;;3.60;;
4724;SDS011;2376;53.544;10.226;2023-06-10T02:33:00;6.43;;;2.57;;
4724;SDS011;2376;53.544;10.226;2023-06-10T02:35:27;4.60;;;2.93;;
4724;SDS011;2376;53.544;10.226;2023-06-10T02:37:53;7.40;;;2.80;;
4724;SDS011;2376;53.544;10.226;2023-06-10T02:40:20;5.23;;;3.37;;
4724;SDS011;2376;53.544;10.226;2023-06-10T02:42:47;8.33;;;3.23;;
4724;SDS011;2376;53.544;10.226;2023-06-10T02:45:15;8.30;;;3.00;;
4724;SDS011;2376;53.544;10.226;2023-06-10T02:47:42;4.00;;;3.17;;
4724;SDS011;2376;53.544;10.226;2023-06-10T02:50:09;6.33;;;2.60;;
4724;SDS011;2376;53.544;10.226;2023-06-10T02:52:35;3.97;;;2.50;;
4724;SDS011;2376;53.544;10.226;2023-06-10T02:55:02;2.43;;;1.90;;
4724;SDS011;2376;53.544;10.226;2023-06-10T02:57:29;5.20;;;3.27;;
4724;SDS011;2376;53.544;10.226;2023-06-10T02:59:56;13.23;;;3.27;;
4724;SDS011;2376;53.544;10.226;2023-06-10T03:02:24;6.50;;;2.40;;
4724;SDS011;2376;53.544;10.226;2023-06-10T03:04:53;11.77;;;2.90;;
4724;SDS011;2376;53.544;10.226;2023-06-10T03:07:20;3.00;;;2.70;;
4724;SDS011;2376;53.544;10.226;2023-06-10T03:09:48;2.60;;;2.40;;
4724;SDS011;2376;53.544;10.226;2023-06-10T03:12:14;5.40;;;2.47;;
4724;SDS011;2376;53.544;10.226;2023-06-10T03:14:41;8.30;;;2.90;;
4724;SDS011;2376;53.544;10.226;2023-06-10T03:17:08;9.80;;;2.50;;
4724;SDS011;2376;53.544;10.226;2023-06-10T03:19:36;6.07;;;3.00;;
4724;SDS011;2376;53.544;10.226;2023-06-10T03:22:07;5.20;;;2.90;;
4724;SDS011;2376;53.544;10.226;2023-06-10T03:24:35;2.63;;;2.30;;
4724;SDS011;2376;53.544;10.226;2023-06-10T03:27:05;5.33;;;2.50;;
4724;SDS011;2376;53.544;10.226;2023-06-10T03:29:32;7.60;;;2.90;;
4724;SDS011;2376;53.544;10.226;2023-06-10T03:31:59;9.63;;;3.20;;
4724;SDS011;2376;53.544;10.226;2023-06-10T03:34:26;6.50;;;2.73;;
4724;SDS011;2376;53.544;10.226;2023-06-10T03:36:54;4.30;;;2.33;;
4724;SDS011;2376;53.544;10.226;2023-06-10T03:39:21;5.87;;;2.40;;
4724;SDS011;2376;53.544;10.226;2023-06-10T03:41:48;7.00;;;1.97;;
4724;SDS011;2376;53.544;10.226;2023-06-10T03:44:15;5.37;;;2.30;;
4724;SDS011;2376;53.544;10.226;2023-06-10T03:46:42;3.57;;;2.73;;
4724;SDS011;2376;53.544;10.226;2023-06-10T03:49:08;5.43;;;2.17;;
4724;SDS011;2376;53.544;10.226;2023-06-10T03:51:35;4.87;;;2.73;;
4724;SDS011;2376;53.544;10.226;2023-06-10T03:54:03;5.43;;;2.20;;
4724;SDS011;2376;53.544;10.226;2023-06-10T03:56:30;6.80;;;2.83;;
4724;SDS011;2376;53.544;10.226;2023-06-10T03:58:57;2.60;;;2.37;;
4724;SDS011;2376;53.544;10.226;2023-06-10T04:01:24;6.23;;;2.30;;
4724;SDS011;2376;53.544;10.226;2023-06-10T04:03:50;3.77;;;3.43;;
4724;SDS011;2376;53.544;10.226;2023-06-10T04:06:19;5.73;;;2.77;;
4724;SDS011;2376;53.544;10.226;2023-06-10T04:08:47;3.90;;;2.40;;
4724;SDS011;2376;53.544;10.226;2023-06-10T04:11:15;3.73;;;2.33;;
4724;SDS011;2376;53.544;10.226;2023-06-10T04:13:42;4.53;;;1.90;;
4724;SDS011;2376;53.544;10.226;2023-06-10T04:16:09;6.17;;;2.30;;
4724;SDS011;2376;53.544;10.226;2023-06-10T04:18:35;3.37;;;2.10;;
4724;SDS011;2376;53.544;10.226;2023-06-10T04:21:02;5.50;;;2.63;;
4724;SDS011;2376;53.544;10.226;2023-06-10T04:23:29;3.27;;;2.23;;
4724;SDS011;2376;53.544;10.226;2023-06-10T04:25:55;2.53;;;2.37;;
4724;SDS011;2376;53.544;10.226;2023-06-10T04:28:23;4.97;;;2.40;;
4724;SDS011;2376;53.544;10.226;2023-06-10T04:30:50;4.63;;;2.37;;
4724;SDS011;2376;53.544;10.226;2023-06-10T04:33:16;6.40;;;2.13;;
4724;SDS011;2376;53.544;10.226;2023-06-10T04:35:43;4.27;;;2.23;;
4724;SDS011;2376;53.544;10.226;2023-06-10T04:38:12;4.07;;;2.00;;
4724;SDS011;2376;53.544;10.226;2023-06-10T04:40:39;4.70;;;2.23;;
4724;SDS011;2376;53.544;10.226;2023-06-10T04:43:06;2.63;;;1.97;;
4724;SDS011;2376;53.544;10.226;2023-06-10T04:45:34;5.23;;;2.23;;
4724;SDS011;2376;53.544;10.226;2023-06-10T04:48:00;5.07;;;1.90;;
4724;SDS011;2376;53.544;10.226;2023-06-10T04:50:28;6.17;;;2.40;;
4724;SDS011;2376;53.544;10.226;2023-06-10T04:52:55;4.23;;;2.10;;
4724;SDS011;2376;53.544;10.226;2023-06-10T04:55:22;3.53;;;2.00;;
4724;SDS011;2376;53.544;10.226;2023-06-10T04:57:49;5.80;;;2.97;;
4724;SDS011;2376;53.544;10.226;2023-06-10T05:00:16;5.13;;;2.30;;
4724;SDS011;2376;53.544;10.226;2023-06-10T05:02:44;5.77;;;2.23;;
4724;SDS011;2376;53.544;10.226;2023-06-10T05:05:14;6.40;;;2.00;;
4724;SDS011;2376;53.544;10.226;2023-06-10T05:07:41;6.00;;;1.93;;
4724;SDS011;2376;53.544;10.226;2023-06-10T05:10:08;4.13;;;2.23;;
4724;SDS011;2376;53.544;10.226;2023-06-10T05:12:37;6.73;;;2.47;;
4724;SDS011;2376;53.544;10.226;2023-06-10T05:15:04;9.10;;;2.90;;
4724;SDS011;2376;53.544;10.226;2023-06-10T05:17:32;5.10;;;2.40;;
4724;SDS011;2376;53.544;10.226;2023-06-10T05:20:01;6.50;;;1.80;;
4724;SDS011;2376;53.544;10.226;2023-06-10T05:22:27;3.27;;;2.00;;
4724;SDS011;2376;53.544;10.226;2023-06-10T05:24:54;7.47;;;1.97;;
4724;SDS011;2376;53.544;10.226;2023-06-10T05:27:21;3.93;;;1.80;;
4724;SDS011;2376;53.544;10.226;2023-06-10T05:29:47;1.67;;;1.57;;
4724;SDS011;2376;53.544;10.226;2023-06-10T05:32:14;3.00;;;1.80;;
4724;SDS011;2376;53.544;10.226;2023-06-10T05:34:41;5.77;;;3.03;;
4724;SDS011;2376;53.544;10.226;2023-06-10T05:37:09;4.53;;;1.90;;
4724;SDS011;2376;53.544;10.226;2023-06-10T05:39:35;6.87;;;2.37;;
4724;SDS011;2376;53.544;10.226;2023-06-10T05:42:03;6.07;;;2.30;;
4724;SDS011;2376;53.544;10.226;2023-06-10T05:44:31;12.93;;;3.27;;
4724;SDS011;2376;53.544;10.226;2023-06-10T05:46:58;9.77;;;3.00;;
4724;SDS011;2376;53.544;10.226;2023-06-10T05:49:24;4.47;;;2.40;;
4724;SDS011;2376;53.544;10.226;2023-06-10T05:51:51;7.47;;;2.63;;
4724;SDS011;2376;53.544;10.226;2023-06-10T05:54:19;7.83;;;2.20;;
4724;SDS011;2376;53.544;10.226;2023-06-10T05:56:46;3.13;;;1.73;;
4724;SDS011;2376;53.544;10.226;2023-06-10T05:59:13;4.80;;;2.20;;
4724;SDS011;2376;53.544;10.226;2023-06-10T06:01:39;4.10;;;2.40;;
4724;SDS011;2376;53.544;10.226;2023-06-10T06:04:06;3.80;;;1.80;;
4724;SDS011;2376;53.544;10.226;2023-06-10T06:06:32;8.50;;;2.60;;
4724;SDS011;2376;53.544;10.226;2023-06-10T06:09:00;5.80;;;2.37;;
4724;SDS011;2376;53.544;10.226;2023-06-10T06:11:29;2.13;;;1.77;;
4724;SDS011;2376;53.544;10.226;2023-06-10T06:13:56;6.37;;;2.30;;
4724;SDS011;2376;53.544;10.226;2023-06-10T06:16:22;4.00;;;2.07;;
4724;SDS011;2376;53.544;10.226;2023-06-10T06:18:49;3.27;;;2.50;;
4724;SDS011;2376;53.544;10.226;2023-06-10T06:21:16;4.90;;;2.47;;
4724;SDS011;2376;53.544;10.226;2023-06-10T06:23:42;2.33;;;1.77;;
4724;SDS011;2376;53.544;10.226;2023-06-10T06:26:09;3.80;;;2.10;;
4724;SDS011;2376;53.544;10.226;2023-06-10T06:28:37;5.53;;;2.67;;
4724;SDS011;2376;53.544;10.226;2023-06-10T06:31:04;6.63;;;3.07;;
4724;SDS011;2376;53.544;10.226;2023-06-10T06:33:30;8.07;;;2.60;;
4724;SDS011;2376;53.544;10.226;2023-06-10T06:35:57;7.73;;;2.10;;
4724;SDS011;2376;53.544;10.226;2023-06-10T06:38:25;4.77;;;2.50;;
4724;SDS011;2376;53.544;10.226;2023-06-10T06:40:51;4.97;;;3.37;;
4724;SDS011;2376;53.544;10.226;2023-06-10T06:43:19;9.40;;;2.23;;
4724;SDS011;2376;53.544;10.226;2023-06-10T06:45:47;9.57;;;3.07;;
4724;SDS011;2376;53.544;10.226;2023-06-10T06:48:13;7.47;;;2.40;;
4724;SDS011;2376;53.544;10.226;2023-06-10T06:50:40;4.47;;;2.40;;
4724;SDS011;2376;53.544;10.226;2023-06-10T06:53:07;4.57;;;2.33;;
4724;SDS011;2376;53.544;10.226;2023-06-10T06:55:34;8.07;;;3.03;;
4724;SDS011;2376;53.544;10.226;2023-06-10T06:58:00;5.30;;;3.33;;
4724;SDS011;2376;53.544;10.226;2023-06-10T07:00:28;5.00;;;2.10;;
4724;SDS011;2376;53.544;10.226;2023-06-10T07:02:57;11.90;;;3.40;;
4724;SDS011;2376;53.544;10.226;2023-06-10T07:05:24;3.33;;;1.97;;
4724;SDS011;2376;53.544;10.226;2023-06-10T07:07:52;2.80;;;2.27;;
4724;SDS011;2376;53.544;10.226;2023-06-10T07:10:20;4.40;;;2.20;;
4724;SDS011;2376;53.544;10.226;2023-06-10T07:12:47;9.07;;;2.57;;
4724;SDS011;2376;53.544;10.226;2023-06-10T07:15:13;4.30;;;2.60;;
4724;SDS011;2376;53.544;10.226;2023-06-10T07:17:40;3.07;;;2.33;;
4724;SDS011;2376;53.544;10.226;2023-06-10T07:20:09;3.87;;;2.50;;
4724;SDS011;2376;53.544;10.226;2023-06-10T07:22:36;3.77;;;2.50;;
4724;SDS011;2376;53.544;10.226;2023-06-10T07:25:04;5.27;;;3.20;;
4724;SDS011;2376;53.544;10.226;2023-06-10T07:27:31;5.57;;;2.43;;
4724;SDS011;2376;53.544;10.226;2023-06-10T07:29:57;9.90;;;2.80;;
4724;SDS011;2376;53.544;10.226;2023-06-10T07:32:25;7.87;;;2.97;;
4724;SDS011;2376;53.544;10.226;2023-06-10T07:34:52;5.43;;;2.50;;
4724;SDS011;2376;53.544;10.226;2023-06-10T07:37:20;5.30;;;2.60;;
4724;SDS011;2376;53.544;10.226;2023-06-10T07:39:47;4.00;;;3.03;;
4724;SDS011;2376;53.544;10.226;2023-06-10T07:42:13;4.70;;;2.57;;
4724;SDS011;2376;53.544;10.226;2023-06-10T07:44:40;3.43;;;3.13;;
4724;SDS011;2376;53.544;10.226;2023-06-10T07:47:07;3.77;;;1.90;;
4724;SDS011;2376;53.544;10.226;2023-06-10T07:49:34;9.17;;;3.63;;
4724;SDS011;2376;53.544;10.226;2023-06-10T07:52:00;6.00;;;2.60;;
4724;SDS011;2376;53.544;10.226;2023-06-10T07:54:28;9.43;;;3.03;;
4724;SDS011;2376;53.544;10.226;2023-06-10T07:56:55;6.37;;;2.43;;
4724;SDS011;2376;53.544;10.226;2023-06-10T07:59:21;3.87;;;2.83;;
4724;SDS011;2376;53.544;10.226;2023-06-10T08:01:49;3.37;;;2.50;;
4724;SDS011;2376;53.544;10.226;2023-06-10T08:04:16;4.50;;;2.80;;
4724;SDS011;2376;53.544;10.226;2023-06-10T08:06:43;6.53;;;2.50;;
4724;SDS011;2376;53.544;10.226;2023-06-10T08:09:10;3.97;;;2.60;;
4724;SDS011;2376;53.544;10.226;2023-06-10T08:11:37;3.27;;;2.50;;
4724;SDS011;2376;53.544;10.226;2023-06-10T08:14:04;6.60;;;2.63;;
4724;SDS011;2376;53.544;10.226;2023-06-10T08:16:31;8.13;;;2.60;;
4724;SDS011;2376;53.544;10.226;2023-06-10T08:18:57;5.33;;;2.77;;
4724;SDS011;2376;53.544;10.226;2023-06-10T08:21:24;6.47;;;3.23;;
4724;SDS011;2376;53.544;10.226;2023-06-10T08:23:53;3.30;;;2.57;;
4724;SDS011;2376;53.544;10.226;2023-06-10T08:26:20;5.70;;;3.23;;
4724;SDS011;2376;53.544;10.226;2023-06-10T08:28:48;6.20;;;3.00;;
4724;SDS011;2376;53.544;10.226;2023-06-10T08:31:14;12.87;;;3.40;;
4724;SDS011;2376;53.544;10.226;2023-06-10T08:33:41;7.87;;;2.63;;
4724;SDS011;2376;53.544;10.226;2023-06-10T08:36:08;3.93;;;3.00;;
4724;SDS011;2376;53.544;10.226;2023-06-10T08:38:35;6.57;;;3.00;;
4724;SDS011;2376;53.544;10.226;2023-06-10T08:41:01;5.60;;;3.40;;
4724;SDS011;2376;53.544;10.226;2023-06-10T08:43:32;8.23;;;3.90;;
4724;SDS011;2376;53.544;10.226;2023-06-10T08:46:04;3.17;;;2.90;;
4724;SDS011;2376;53.544;10.226;2023-06-10T08:48:35;5.40;;;2.93;;
4724;SDS011;2376;53.544;10.226;2023-06-10T08:51:06;3.67;;;2.90;;
4724;SDS011;2376;53.544;10.226;2023-06-10T08:53:36;3.90;;;3.43;;
4724;SDS011;2376;53.544;10.226;2023-06-10T08:56:07;7.43;;;3.23;;
4724;SDS011;2376;53.544;10.226;2023-06-10T08:58:35;8.37;;;3.90;;
4724;SDS011;2376;53.544;10.226;2023-06-10T09:01:08;4.90;;;2.97;;
4724;SDS011;2376;53.544;10.226;2023-06-10T09:03:36;5.10;;;3.00;;
4724;SDS011;2376;53.544;10.226;2023-06-10T09:06:04;5.53;;;3.03;;
4724;SDS011;2376;53.544;10.226;2023-06-10T09:08:32;5.63;;;4.00;;
4724;SDS011;2376;53.544;10.226;2023-06-10T09:10:59;4.90;;;3.53;;
4724;SDS011;2376;53.544;10.226;2023-06-10T09:13:26;7.87;;;3.10;;
4724;SDS011;2376;53.544;10.226;2023-06-10T09:15:53;6.20;;;3.20;;
4724;SDS011;2376;53.544;10.226;2023-06-10T09:18:22;9.93;;;3.30;;
4724;SDS011;2376;53.544;10.226;2023-06-10T09:20:49;5.70;;;3.20;;
4724;SDS011;2376;53.544;10.226;2023-06-10T09:23:16;15.27;;;3.97;;
4724;SDS011;2376;53.544;10.226;2023-06-10T09:25:43;3.67;;;2.97;;
4724;SDS011;2376;53.544;10.226;2023-06-10T09:28:12;9.17;;;3.43;;
4724;SDS011;2376;53.544;10.226;2023-06-10T09:30:40;5.77;;;3.90;;
4724;SDS011;2376;53.544;10.226;2023-06-10T09:33:09;3.53;;;3.17;;
4724;SDS011;2376;53.544;10.226;2023-06-10T09:35:44;3.77;;;3.30;;
4724;SDS011;2376;53.544;10.226;2023-06-10T09:38:13;4.80;;;3.40;;
4724;SDS011;2376;53.544;10.226;2023-06-10T09:40:47;3.97;;;3.30;;
4724;SDS011;2376;53.544;10.226;2023-06-10T09:43:15;6.57;;;3.33;;
4724;SDS011;2376;53.544;10.226;2023-06-10T09:45:42;7.73;;;3.60;;
4724;SDS011;2376;53.544;10.226;2023-06-10T09:48:09;5.67;;;3.53;;
4724;SDS011;2376;53.544;10.226;2023-06-10T09:50:42;4.67;;;3.97;;
4724;SDS011;2376;53.544;10.226;2023-06-10T09:53:10;3.57;;;3.13;;
4724;SDS011;2376;53.544;10.226;2023-06-10T09:55:37;8.00;;;3.43;;
4724;SDS011;2376;53.544;10.226;2023-06-10T09:58:04;6.03;;;3.80;;
4724;SDS011;2376;53.544;10.226;2023-06-10T10:00:31;4.43;;;3.37;;
4724;SDS011;2376;53.544;10.226;2023-06-10T10:02:59;3.97;;;3.43;;
4724;SDS011;2376;53.544;10.226;2023-06-10T10:05:26;4.83;;;4.30;;
4724;SDS011;2376;53.544;10.226;2023-06-10T10:07:56;4.60;;;4.07;;
4724;SDS011;2376;53.544;10.226;2023-06-10T10:10:23;4.80;;;3.57;;
4724;SDS011;2376;53.544;10.226;2023-06-10T10:12:51;7.87;;;3.53;;
4724;SDS011;2376;53.544;10.226;2023-06-10T10:15:21;6.80;;;4.20;;
4724;SDS011;2376;53.544;10.226;2023-06-10T10:17:49;4.80;;;4.27;;
4724;SDS011;2376;53.544;10.226;2023-06-10T10:20:20;4.13;;;3.80;;
4724;SDS011;2376;53.544;10.226;2023-06-10T10:22:50;4.70;;;4.13;;
4724;SDS011;2376;53.544;10.226;2023-06-10T10:25:21;5.10;;;3.53;;
4724;SDS011;2376;53.544;10.226;2023-06-10T10:27:51;6.33;;;3.67;;
4724;SDS011;2376;53.544;10.226;2023-06-10T10:30:20;8.10;;;4.00;;
4724;SDS011;2376;53.544;10.226;2023-06-10T10:32:51;7.57;;;4.30;;
4724;SDS011;2376;53.544;10.226;2023-06-10T10:35:23;4.30;;;3.43;;
4724;SDS011;2376;53.544;10.226;2023-06-10T10:37:51;7.00;;;4.00;;
4724;SDS011;2376;53.544;10.226;2023-06-10T10:40:19;4.73;;;4.30;;
4724;SDS011;2376;53.544;10.226;2023-06-10T10:42:47;7.67;;;4.40;;
4724;SDS011;2376;53.544;10.226;2023-06-10T10:45:15;7.17;;;4.30;;
4724;SDS011;2376;53.544;10.226;2023-06-10T10:47:42;4.03;;;3.60;;
4724;SDS011;2376;53.544;10.226;2023-06-10T10:50:12;5.73;;;4.07;;
4724;SDS011;2376;53.544;10.226;2023-06-10T10:52:51;4.63;;;4.10;;
4724;SDS011;2376;53.544;10.226;2023-06-10T10:55:23;5.70;;;3.60;;
4724;SDS011;2376;53.544;10.226;2023-06-10T10:57:53;4.90;;;4.40;;
4724;SDS011;2376;53.544;10.226;2023-06-10T11:00:28;5.10;;;4.43;;
4724;SDS011;2376;53.544;10.226;2023-06-10T11:02:59;4.70;;;4.37;;
4724;SDS011;2376;53.544;10.226;2023-06-10T11:05:31;7.80;;;5.10;;
4724;SDS011;2376;53.544;10.226;2023-06-10T11:08:02;50.40;;;7.83;;
4724;SDS011;2376;53.544;10.226;2023-06-10T11:10:31;6.67;;;4.73;;
4724;SDS011;2376;53.544;10.226;2023-06-10T11:12:58;14.23;;;5.40;;
4724;SDS011;2376;53.544;10.226;2023-06-10T11:15:26;5.83;;;4.67;;
4724;SDS011;2376;53.544;10.226;2023-06-10T11:18:10;6.60;;;4.17;;
4724;SDS011;2376;53.544;10.226;2023-06-10T11:20:51;8.20;;;4.00;;
4724;SDS011;2376;53.544;10.226;2023-06-10T11:23:38;4.83;;;4.27;;
4724;SDS011;2376;53.544;10.226;2023-06-10T11:26:21;7.30;;;4.33;;
4724;SDS011;2376;53.544;10.226;2023-06-10T11:29:03;5.67;;;4.30;;
4724;SDS011;2376;53.544;10.226;2023-06-10T11:31:38;7.57;;;4.53;;
4724;SDS011;2376;53.544;10.226;2023-06-10T11:34:07;4.43;;;4.10;;
4724;SDS011;2376;53.544;10.226;2023-06-10T11:36:37;5.93;;;4.43;;
4724;SDS011;2376;53.544;10.226;2023-06-10T11:39:10;5.87;;;4.67;;
4724;SDS011;2376;53.544;10.226;2023-06-10T11:41:39;6.03;;;4.70;;
4724;SDS011;2376;53.544;10.226;2023-06-10T11:44:10;6.27;;;4.30;;
4724;SDS011;2376;53.544;10.226;2023-06-10T11:46:38;7.73;;;4.90;;
4724;SDS011;2376;53.544;10.226;2023-06-10T11:49:05;5.60;;;4.40;;
4724;SDS011;2376;53.544;10.226;2023-06-10T11:51:33;7.80;;;4.47;;
4724;SDS011;2376;53.544;10.226;2023-06-10T11:54:01;4.30;;;3.90;;
4724;SDS011;2376;53.544;10.226;2023-06-10T11:56:28;5.23;;;4.47;;
4724;SDS011;2376;53.544;10.226;2023-06-10T11:58:58;4.07;;;3.63;;
4724;SDS011;2376;53.544;10.226;2023-06-10T12:01:29;6.90;;;4.73;;
4724;SDS011;2376;53.544;10.226;2023-06-10T12:03:56;4.87;;;4.37;;
4724;SDS011;2376;53.544;10.226;2023-06-10T12:06:27;4.60;;;4.20;;
4724;SDS011;2376;53.544;10.226;2023-06-10T12:09:03;7.30;;;4.40;;
4724;SDS011;2376;53.544;10.226;2023-06-10T12:11:30;6.30;;;4.77;;
4724;SDS011;2376;53.544;10.226;2023-06-10T12:13:58;5.60;;;4.50;;
4724;SDS011;2376;53.544;10.226;2023-06-10T12:16:24;9.40;;;5.20;;
4724;SDS011;2376;53.544;10.226;2023-06-10T12:19:00;7.60;;;4.37;;
4724;SDS011;2376;53.544;10.226;2023-06-10T12:21:28;6.37;;;4.63;;
4724;SDS011;2376;53.544;10.226;2023-06-10T12:23:59;7.80;;;4.37;;
4724;SDS011;2376;53.544;10.226;2023-06-10T12:26:33;6.30;;;4.90;;
4724;SDS011;2376;53.544;10.226;2023-06-10T12:29:21;5.10;;;4.63;;
4724;SDS011;2376;53.544;10.226;2023-06-10T12:31:56;4.53;;;4.10;;
4724;SDS011;2376;53.544;10.226;2023-06-10T12:34:28;6.47;;;4.10;;
4724;SDS011;2376;53.544;10.226;2023-06-10T12:37:00;4.70;;;4.30;;
4724;SDS011;2376;53.544;10.226;2023-06-10T12:39:28;7.00;;;4.60;;
4724;SDS011;2376;53.544;10.226;2023-06-10T12:41:54;5.27;;;4.70;;
4724;SDS011;2376;53.544;10.226;2023-06-10T12:44:35;5.10;;;4.30;;
4724;SDS011;2376;53.544;10.226;2023-06-10T12:47:09;9.30;;;4.37;;
4724;SDS011;2376;53.544;10.226;2023-06-10T12:49:37;6.00;;;5.10;;
4724;SDS011;2376;53.544;10.226;2023-06-10T12:52:04;4.80;;;4.27;;
4724;SDS011;2376;53.544;10.226;2023-06-10T12:54:32;4.83;;;4.33;;
4724;SDS011;2376;53.544;10.226;2023-06-10T12:56:59;7.93;;;4.27;;
4724;SDS011;2376;53.544;10.226;2023-06-10T12:59:26;7.67;;;4.20;;
4724;SDS011;2376;53.544;10.226;2023-06-10T13:01:54;5.33;;;4.50;;
4724;SDS011;2376;53.544;10.226;2023-06-10T13:04:21;11.70;;;4.97;;
4724;SDS011;2376;53.544;10.226;2023-06-10T13:06:48;6.03;;;4.77;;
4724;SDS011;2376;53.544;10.226;2023-06-10T13:09:15;11.00;;;5.00;;
4724;SDS011;2376;53.544;10.226;2023-06-10T13:11:42;5.37;;;4.87;;
4724;SDS011;2376;53.544;10.226;2023-06-10T13:14:09;6.63;;;4.70;;
4724;SDS011;2376;53.544;10.226;2023-06-10T13:16:37;7.30;;;4.23;;
4724;SDS011;2376;53.544;10.226;2023-06-10T13:19:05;4.93;;;4.53;;
4724;SDS011;2376;53.544;10.226;2023-06-10T13:21:32;4.87;;;4.43;;
4724;SDS011;2376;53.544;10.226;2023-06-10T13:24:00;5.60;;;4.73;;
4724;SDS011;2376;53.544;10.226;2023-06-10T13:26:26;8.50;;;4.10;;
4724;SDS011;2376;53.544;10.226;2023-06-10T13:28:53;4.90;;;3.30;;
4724;SDS011;2376;53.544;10.226;2023-06-10T13:31:20;7.50;;;3.67;;
4724;SDS011;2376;53.544;10.226;2023-06-10T13:33:46;8.60;;;3.53;;
4724;SDS011;2376;53.544;10.226;2023-06-10T13:36:14;6.37;;;3.70;;
4724;SDS011;2376;53.544;10.226;2023-06-10T13:38:41;7.70;;;4.20;;
4724;SDS011;2376;53.544;10.226;2023-06-10T13:41:08;9.00;;;3.73;;
4724;SDS011;2376;53.544;10.226;2023-06-10T13:43:35;3.63;;;2.97;;
4724;SDS011;2376;53.544;10.226;2023-06-10T13:46:01;3.60;;;3.27;;
4724;SDS011;2376;53.544;10.226;2023-06-10T13:48:28;5.20;;;3.70;;
4724;SDS011;2376;53.544;10.226;2023-06-10T13:50:56;5.40;;;3.50;;
4724;SDS011;2376;53.544;10.226;2023-06-10T13:53:24;7.03;;;3.13;;
4724;SDS011;2376;53.544;10.226;2023-06-10T13:55:50;5.77;;;3.50;;
4724;SDS011;2376;53.544;10.226;2023-06-10T13:58:17;8.07;;;3.07;;
4724;SDS011;2376;53.544;10.226;2023-06-10T14:00:43;8.33;;;3.23;;
4724;SDS011;2376;53.544;10.226;2023-06-10T14:03:10;4.87;;;3.27;;
4724;SDS011;2376;53.544;10.226;2023-06-10T14:05:37;5.63;;;3.20;;
4724;SDS011;2376;53.544;10.226;2023-06-10T14:08:04;4.77;;;3.13;;
4724;SDS011;2376;53.544;10.226;2023-06-10T14:10:32;11.10;;;3.80;;
4724;SDS011;2376;53.544;10.226;2023-06-10T14:12:59;4.90;;;3.37;;
4724;SDS011;2376;53.544;10.226;2023-06-10T14:15:26;10.37;;;3.20;;
4724;SDS011;2376;53.544;10.226;2023-06-10T14:17:53;8.20;;;3.37;;
4724;SDS011;2376;53.544;10.226;2023-06-10T14:20:20;4.33;;;3.93;;
4724;SDS011;2376;53.544;10.226;2023-06-10T14:22:46;4.30;;;3.17;;
4724;SDS011;2376;53.544;10.226;2023-06-10T14:25:13;6.40;;;3.97;;
4724;SDS011;2376;53.544;10.226;2023-06-10T14:27:41;5.30;;;3.43;;
4724;SDS011;2376;53.544;10.226;2023-06-10T14:30:08;7.17;;;3.63;;
4724;SDS011;2376;53.544;10.226;2023-06-10T14:32:35;3.80;;;2.83;;
4724;SDS011;2376;53.544;10.226;2023-06-10T14:35:02;7.90;;;3.70;;
4724;SDS011;2376;53.544;10.226;2023-06-10T14:37:29;4.13;;;3.43;;
4724;SDS011;2376;53.544;10.226;2023-06-10T14:39:56;4.87;;;3.70;;
4724;SDS011;2376;53.544;10.226;2023-06-10T14:42:22;8.97;;;3.20;;
4724;SDS011;2376;53.544;10.226;2023-06-10T14:44:51;6.90;;;3.53;;
4724;SDS011;2376;53.544;10.226;2023-06-10T14:47:17;3.67;;;3.33;;
4724;SDS011;2376;53.544;10.226;2023-06-10T14:49:44;6.47;;;2.83;;
4724;SDS011;2376;53.544;10.226;2023-06-10T14:52:10;5.63;;;3.47;;
4724;SDS011;2376;53.544;10.226;2023-06-10T14:54:37;6.13;;;3.40;;
4724;SDS011;2376;53.544;10.226;2023-06-10T14:57:04;4.50;;;3.23;;
4724;SDS011;2376;53.544;10.226;2023-06-10T14:59:32;7.90;;;3.70;;
4724;SDS011;2376;53.544;10.226;2023-06-10T15:02:00;6.10;;;3.30;;
4724;SDS011;2376;53.544;10.226;2023-06-10T15:04:27;9.77;;;4.13;;
4724;SDS011;2376;53.544;10.226;2023-06-10T15:06:54;7.17;;;3.70;;